createdAt,value
2023-02-03T00:00:22.225Z,52.10
2023-02-03T00:02:27.001Z,51.96
2023-02-03T00:04:31.790Z,51.86
2023-02-03T00:06:36.704Z,51.83
2023-02-03T00:08:41.725Z,51.88
2023-02-03T00:10:46.774Z,51.91
2023-02-03T00:12:56.336Z,52.00
2023-02-03T00:15:01.161Z,51.93
2023-02-03T00:17:05.955Z,51.73
2023-02-03T00:19:10.628Z,51.94
2023-02-03T00:21:15.508Z,51.90
2023-02-03T00:23:20.245Z,52.16
2023-02-03T00:25:25.133Z,51.88
2023-02-03T00:27:29.832Z,51.94
2023-02-03T00:29:37.164Z,52.01
2023-02-03T00:31:42.030Z,52.00
2023-02-03T00:33:46.984Z,52.07
2023-02-03T00:35:51.825Z,52.02
2023-02-03T00:37:57.965Z,52.05
2023-02-03T00:40:02.674Z,52.19
2023-02-03T00:42:08.709Z,52.17
2023-02-03T00:44:13.515Z,51.96
2023-02-03T00:46:20.987Z,52.07
2023-02-03T00:48:25.740Z,51.99
2023-02-03T00:50:30.597Z,52.14
2023-02-03T00:52:35.531Z,52.01
2023-02-03T00:54:40.381Z,51.85
2023-02-03T00:56:45.758Z,52.08
2023-02-03T00:58:50.615Z,52.03
2023-02-03T01:00:58.371Z,52.01
2023-02-03T01:03:05.961Z,52.12
2023-02-03T01:05:11.439Z,52.06
2023-02-03T01:07:16.236Z,51.88
2023-02-03T01:09:20.922Z,51.67
2023-02-03T01:11:27.315Z,51.83
2023-02-03T01:13:32.089Z,51.93
2023-02-03T01:15:37.133Z,52.00
2023-02-03T01:17:41.902Z,51.85
2023-02-03T01:19:49.200Z,51.95
2023-02-03T01:21:54.644Z,51.71
2023-02-03T01:24:02.154Z,51.93
2023-02-03T01:26:08.689Z,51.79
2023-02-03T01:28:13.888Z,51.92
2023-02-03T01:30:19.045Z,51.90
2023-02-03T01:32:25.031Z,51.96
2023-02-03T01:34:29.730Z,51.71
2023-02-03T01:36:38.334Z,51.92
2023-02-03T01:38:43.182Z,51.69
2023-02-03T01:40:48.666Z,51.69
2023-02-03T01:42:53.362Z,51.93
2023-02-03T01:44:58.585Z,51.65
2023-02-03T01:47:03.552Z,51.78
2023-02-03T01:49:12.269Z,51.58
2023-02-03T01:51:16.969Z,51.58
2023-02-03T01:53:24.798Z,51.53
2023-02-03T01:55:33.120Z,51.77
2023-02-03T01:57:42.919Z,51.71
2023-02-03T01:59:48.592Z,51.57
2023-02-03T02:01:54.959Z,51.96
2023-02-03T02:04:02.335Z,51.93
2023-02-03T02:06:09.138Z,51.86
2023-02-03T02:08:15.739Z,51.94
2023-02-03T02:10:23.436Z,51.59
2023-02-03T02:12:28.083Z,51.90
2023-02-03T02:14:34.116Z,51.72
2023-02-03T02:16:48.627Z,51.77
2023-02-03T02:19:06.250Z,51.68
2023-02-03T02:21:37.213Z,51.71
2023-02-03T02:24:10.854Z,51.72
2023-02-03T02:26:41.654Z,51.84
2023-02-03T02:29:15.712Z,51.98
2023-02-03T02:31:52.874Z,51.73
2023-02-03T02:34:06.627Z,51.93
2023-02-03T02:36:24.403Z,51.85
2023-02-03T02:38:41.061Z,51.68
2023-02-03T02:40:53.476Z,51.76
2023-02-03T02:43:08.054Z,51.80
2023-02-03T02:45:26.483Z,51.63
2023-02-03T02:47:32.445Z,51.85
2023-02-03T02:49:45.457Z,51.58
2023-02-03T02:51:51.762Z,51.82
2023-02-03T02:53:59.514Z,51.46
2023-02-03T02:56:10.643Z,51.77
2023-02-03T02:58:19.387Z,51.79
2023-02-03T03:00:25.739Z,51.83
2023-02-03T03:02:35.689Z,51.71
2023-02-03T03:04:48.499Z,51.70
2023-02-03T03:07:00.493Z,51.54
2023-02-03T03:09:08.772Z,51.86
2023-02-03T03:11:17.285Z,51.96
2023-02-03T03:13:28.373Z,51.85
2023-02-03T03:15:36.353Z,51.85
2023-02-03T03:17:51.791Z,51.80
2023-02-03T03:20:03.802Z,51.89
2023-02-03T03:22:10.501Z,51.85
2023-02-03T03:24:27.237Z,51.87
2023-02-03T03:26:38.166Z,51.72
2023-02-03T03:28:49.667Z,51.85
2023-02-03T03:30:55.201Z,51.83
2023-02-03T03:33:00.759Z,51.63
2023-02-03T03:35:09.786Z,51.78
2023-02-03T03:37:21.027Z,51.75
2023-02-03T03:39:31.311Z,51.53
2023-02-03T03:41:44.108Z,51.71
2023-02-03T03:43:51.513Z,51.85
2023-02-03T03:46:01.252Z,51.42
2023-02-03T03:48:12.366Z,51.52
2023-02-03T03:50:24.940Z,51.46
2023-02-03T03:52:34.909Z,51.71
2023-02-03T03:54:41.813Z,51.60
2023-02-03T03:57:01.476Z,51.44
2023-02-03T03:59:08.638Z,51.61
2023-02-03T04:01:14.938Z,51.30
2023-02-03T04:03:23.603Z,51.59
2023-02-03T04:05:31.313Z,51.54
2023-02-03T04:07:41.449Z,51.45
2023-02-03T04:09:46.343Z,51.35
2023-02-03T04:12:06.666Z,51.23
2023-02-03T04:14:11.740Z,51.59
2023-02-03T04:16:16.508Z,51.48
2023-02-03T04:18:21.348Z,51.58
2023-02-03T04:20:26.943Z,51.50
2023-02-03T04:22:34.594Z,51.15
2023-02-03T04:24:39.301Z,50.96
2023-02-03T04:26:44.233Z,51.21
2023-02-03T04:28:48.907Z,51.24
2023-02-03T04:30:53.639Z,51.33
2023-02-03T04:32:58.361Z,51.29
2023-02-03T04:35:03.189Z,51.04
2023-02-03T04:37:07.951Z,51.05
2023-02-03T04:39:15.370Z,51.20
2023-02-03T04:41:20.559Z,51.08
2023-02-03T04:43:25.345Z,51.10
2023-02-03T04:45:30.102Z,50.94
2023-02-03T04:47:34.895Z,50.89
2023-02-03T04:49:39.625Z,50.91
2023-02-03T04:51:44.484Z,50.91
2023-02-03T04:53:49.257Z,50.69
2023-02-03T04:55:56.635Z,50.88
2023-02-03T04:58:02.619Z,50.64
2023-02-03T05:00:08.958Z,50.53
2023-02-03T05:02:14.004Z,50.58
2023-02-03T05:04:18.898Z,50.38
2023-02-03T05:06:27.063Z,50.42
2023-02-03T05:08:32.312Z,50.30
2023-02-03T05:10:37.014Z,50.36
2023-02-03T05:12:44.332Z,50.36
2023-02-03T05:14:49.058Z,50.49
2023-02-03T05:16:54.119Z,50.34
2023-02-03T05:18:58.908Z,50.54
2023-02-03T05:21:03.684Z,50.40
2023-02-03T05:23:08.374Z,50.80
2023-02-03T05:25:13.399Z,50.75
2023-02-03T05:27:18.502Z,50.62
2023-02-03T05:29:25.873Z,50.44
2023-02-03T05:31:30.624Z,50.63
2023-02-03T05:33:35.564Z,50.60
2023-02-03T05:35:40.249Z,50.43
2023-02-03T05:37:47.109Z,50.19
2023-02-03T05:39:51.929Z,50.50
2023-02-03T05:41:57.126Z,50.08
2023-02-03T05:44:02.777Z,50.51
2023-02-03T05:46:10.867Z,50.30
2023-02-03T05:48:15.597Z,50.33
2023-02-03T05:50:20.710Z,50.09
2023-02-03T05:52:26.746Z,50.04
2023-02-03T05:54:31.805Z,50.06
2023-02-03T05:56:36.508Z,50.42
2023-02-03T05:58:41.186Z,50.43
2023-02-03T06:00:45.990Z,50.23
2023-02-03T06:02:57.408Z,50.36
2023-02-03T06:05:02.377Z,50.43
2023-02-03T06:07:07.278Z,50.32
2023-02-03T06:09:12.210Z,50.25
2023-02-03T06:11:16.954Z,50.55
2023-02-03T06:13:21.586Z,50.50
2023-02-03T06:15:26.339Z,50.22
2023-02-03T06:17:31.170Z,50.38
2023-02-03T06:19:38.574Z,50.19
2023-02-03T06:21:43.295Z,50.32
2023-02-03T06:23:48.031Z,49.99
2023-02-03T06:25:53.645Z,50.16
2023-02-03T06:27:58.404Z,50.19
2023-02-03T06:30:03.341Z,49.88
2023-02-03T06:32:08.225Z,50.17
2023-02-03T06:34:13.043Z,49.96
2023-02-03T06:36:20.457Z,49.93
2023-02-03T06:38:25.551Z,50.04
2023-02-03T06:40:30.846Z,50.25
2023-02-03T06:42:36.070Z,50.11
2023-02-03T06:44:41.224Z,50.07
2023-02-03T06:46:46.161Z,49.84
2023-02-03T06:48:50.890Z,49.86
2023-02-03T06:50:55.808Z,49.82
2023-02-03T06:53:03.134Z,49.73
2023-02-03T06:55:09.825Z,50.06
2023-02-03T06:57:14.650Z,49.83
2023-02-03T06:59:19.503Z,50.08
2023-02-03T07:01:26.080Z,49.78
2023-02-03T07:03:31.010Z,50.09
2023-02-03T07:05:36.981Z,49.95
2023-02-03T07:07:41.942Z,49.81
2023-02-03T07:09:49.238Z,50.05
2023-02-03T07:11:53.935Z,49.77
2023-02-03T07:13:58.642Z,50.33
2023-02-03T07:16:03.355Z,50.06
2023-02-03T07:18:08.234Z,49.99
2023-02-03T07:20:14.139Z,50.06
2023-02-03T07:22:19.040Z,49.86
2023-02-03T07:24:23.746Z,49.88
2023-02-03T07:26:31.107Z,50.06
2023-02-03T07:28:36.328Z,50.06
2023-02-03T07:30:41.177Z,49.94
2023-02-03T07:32:49.916Z,50.07
2023-02-03T07:34:54.663Z,50.16
2023-02-03T07:37:00.063Z,50.01
2023-02-03T07:39:04.942Z,50.04
2023-02-03T07:41:10.073Z,49.99
2023-02-03T07:43:17.958Z,50.27
2023-02-03T07:45:24.961Z,50.06
2023-02-03T07:47:30.384Z,50.13
2023-02-03T07:49:35.512Z,50.10
2023-02-03T07:51:40.509Z,49.95
2023-02-03T07:53:45.208Z,50.03
2023-02-03T07:55:50.001Z,49.95
2023-02-03T07:57:56.705Z,50.01
2023-02-03T08:00:04.158Z,49.88
2023-02-03T08:02:17.313Z,49.90
2023-02-03T08:04:22.245Z,50.19
2023-02-03T08:06:26.894Z,50.07
2023-02-03T08:08:32.034Z,50.39
2023-02-03T08:10:37.646Z,50.08
2023-02-03T08:12:45.070Z,50.24
2023-02-03T08:14:50.004Z,49.81
2023-02-03T08:16:57.363Z,49.91
2023-02-03T08:19:02.024Z,49.94
2023-02-03T08:21:07.273Z,49.81
2023-02-03T08:23:12.658Z,49.54
2023-02-03T08:25:17.674Z,49.85
2023-02-03T08:27:24.500Z,49.71
2023-02-03T08:29:29.200Z,49.58
2023-02-03T08:31:34.266Z,49.67
2023-02-03T08:33:41.744Z,49.45
2023-02-03T08:35:50.229Z,49.36
2023-02-03T08:37:55.824Z,49.38
2023-02-03T08:40:00.923Z,49.33
2023-02-03T08:42:05.870Z,49.55
2023-02-03T08:44:10.832Z,49.55
2023-02-03T08:46:16.953Z,49.30
2023-02-03T08:48:21.778Z,49.31
2023-02-03T08:50:29.519Z,49.38
2023-02-03T08:52:34.474Z,49.35
2023-02-03T08:54:39.704Z,49.44
2023-02-03T08:56:44.687Z,49.47
2023-02-03T08:58:49.660Z,49.50
2023-02-03T09:00:55.595Z,49.50
2023-02-03T09:03:00.457Z,49.26
2023-02-03T09:05:05.322Z,49.12
2023-02-03T09:07:13.466Z,49.12
2023-02-03T09:09:18.436Z,49.22
2023-02-03T09:11:23.171Z,49.27
2023-02-03T09:13:28.076Z,49.33
2023-02-03T09:15:32.857Z,49.43
2023-02-03T09:17:37.600Z,49.41
2023-02-03T09:19:42.478Z,49.23
2023-02-03T09:21:49.240Z,49.25
2023-02-03T09:23:57.293Z,49.05
2023-02-03T09:26:04.908Z,49.28
2023-02-03T09:28:09.924Z,49.06
2023-02-03T09:30:17.077Z,49.01
2023-02-03T09:32:22.327Z,49.19
2023-02-03T09:34:27.383Z,49.18
2023-02-03T09:36:32.375Z,49.07
2023-02-03T09:38:38.068Z,49.16
2023-02-03T09:40:45.470Z,49.03
2023-02-03T09:43:11.439Z,49.13
2023-02-03T09:45:24.033Z,48.98
2023-02-03T09:47:33.499Z,48.96
2023-02-03T09:49:42.584Z,49.14
2023-02-03T09:51:52.390Z,48.98
2023-02-03T09:54:02.771Z,48.97
2023-02-03T09:56:21.209Z,49.15
2023-02-03T09:58:26.495Z,48.97
2023-02-03T10:00:35.101Z,49.14
2023-02-03T10:02:53.080Z,49.21
2023-02-03T10:05:03.113Z,49.07
2023-02-03T10:07:20.220Z,49.17
2023-02-03T10:09:42.447Z,49.13
2023-02-03T10:12:04.937Z,49.25
2023-02-03T10:14:25.746Z,48.91
2023-02-03T10:16:44.947Z,49.06
2023-02-03T10:18:53.925Z,48.94
2023-02-03T10:21:02.806Z,48.78
2023-02-03T10:23:14.746Z,49.04
2023-02-03T10:25:25.112Z,48.96
2023-02-03T10:27:34.080Z,48.68
2023-02-03T10:29:45.343Z,48.87
2023-02-03T10:31:50.505Z,48.62
2023-02-03T10:34:02.319Z,48.79
2023-02-03T10:36:18.185Z,48.87
2023-02-03T10:38:34.127Z,48.82
2023-02-03T10:40:40.057Z,48.68
2023-02-03T10:43:02.498Z,49.00
2023-02-03T10:45:08.178Z,48.95
2023-02-03T10:47:24.980Z,48.89
2023-02-03T10:49:31.763Z,48.51
2023-02-03T10:51:40.432Z,48.72
2023-02-03T10:53:46.383Z,48.39
2023-02-03T10:55:55.009Z,48.66
2023-02-03T10:58:16.515Z,48.48
2023-02-03T11:00:30.857Z,48.66
2023-02-03T11:02:35.760Z,48.49
2023-02-03T11:04:40.601Z,48.31
2023-02-03T11:06:58.019Z,48.20
2023-02-03T11:09:03.920Z,48.23
2023-02-03T11:11:11.342Z,48.25
2023-02-03T11:13:22.098Z,48.17
2023-02-03T11:15:27.096Z,48.31
2023-02-03T11:17:34.600Z,48.35
2023-02-03T11:19:42.200Z,48.24
2023-02-03T11:21:50.750Z,48.47
2023-02-03T11:24:00.155Z,48.12
2023-02-03T11:26:14.639Z,48.43
2023-02-03T11:28:22.217Z,48.10
2023-02-03T11:30:30.580Z,47.87
2023-02-03T11:32:38.269Z,47.78
2023-02-03T11:34:49.030Z,47.66
2023-02-03T11:36:53.978Z,47.49
2023-02-03T11:39:24.151Z,47.26
2023-02-03T11:41:28.830Z,47.15
2023-02-03T11:43:36.256Z,46.79
2023-02-03T11:45:44.616Z,46.54
2023-02-03T11:47:53.747Z,46.63
2023-02-03T11:50:10.939Z,46.46
2023-02-03T11:52:35.320Z,46.59
2023-02-03T11:54:46.896Z,46.21
2023-02-03T11:57:13.951Z,46.57
2023-02-03T12:00:03.482Z,46.26
2023-02-03T12:02:39.963Z,46.47
2023-02-03T12:05:12.243Z,46.17
2023-02-03T12:07:48.905Z,46.44
2023-02-03T12:09:59.670Z,46.37
2023-02-03T12:12:24.680Z,46.36
2023-02-03T12:14:45.913Z,46.25
2023-02-03T12:17:09.863Z,45.98
2023-02-03T12:19:23.141Z,46.12
2023-02-03T12:21:45.503Z,46.42
2023-02-03T12:23:59.184Z,46.51
2023-02-03T12:26:17.141Z,46.28
2023-02-03T12:28:42.602Z,46.01
2023-02-03T12:30:52.315Z,46.27
2023-02-03T12:33:00.964Z,46.33
2023-02-03T12:35:19.325Z,45.95
2023-02-03T12:37:33.462Z,46.41
2023-02-03T12:39:45.932Z,46.45
2023-02-03T12:41:55.422Z,46.65
2023-02-03T12:44:04.722Z,46.68
2023-02-03T12:46:17.197Z,46.45
2023-02-03T12:48:26.571Z,46.15
2023-02-03T12:50:37.210Z,46.17
2023-02-03T12:52:50.495Z,46.09
2023-02-03T12:55:02.642Z,45.59
2023-02-03T12:57:18.809Z,45.86
2023-02-03T12:59:28.440Z,45.99
2023-02-03T13:01:38.296Z,45.96
2023-02-03T13:03:48.706Z,45.72
2023-02-03T13:06:00.960Z,45.45
2023-02-03T13:08:17.786Z,45.83
2023-02-03T13:10:29.783Z,45.83
2023-02-03T13:12:41.177Z,45.50
2023-02-03T13:14:50.494Z,45.52
2023-02-03T13:17:00.378Z,45.86
2023-02-03T13:19:09.020Z,45.84
2023-02-03T13:21:14.834Z,45.62
2023-02-03T13:23:22.745Z,45.51
2023-02-03T13:25:34.301Z,45.51
2023-02-03T13:27:45.725Z,45.67
2023-02-03T13:30:07.759Z,45.45
2023-02-03T13:32:27.229Z,45.37
2023-02-03T13:34:52.664Z,45.52
2023-02-03T13:37:15.992Z,45.55
2023-02-03T13:39:42.864Z,45.43
2023-02-03T13:41:51.134Z,45.46
2023-02-03T13:43:57.783Z,45.56
2023-02-03T13:46:03.450Z,45.34
2023-02-03T13:48:13.938Z,45.36
2023-02-03T13:50:25.669Z,45.50
2023-02-03T13:52:37.185Z,45.42
2023-02-03T13:54:47.302Z,45.48
2023-02-03T13:56:58.363Z,44.98
2023-02-03T13:59:07.180Z,45.19
2023-02-03T14:01:33.464Z,45.40
2023-02-03T14:03:48.655Z,45.12
2023-02-03T14:05:55.113Z,45.22
2023-02-03T14:07:59.988Z,44.96
2023-02-03T14:10:19.329Z,45.09
2023-02-03T14:13:02.428Z,45.00
2023-02-03T14:15:31.489Z,45.13
2023-02-03T14:18:26.960Z,45.43
2023-02-03T14:20:54.524Z,45.28
2023-02-03T14:23:02.262Z,45.04
2023-02-03T14:25:09.829Z,44.90
2023-02-03T14:27:26.199Z,45.01
2023-02-03T14:29:32.929Z,45.10
2023-02-03T14:31:57.188Z,45.06
2023-02-03T14:34:17.155Z,45.27
2023-02-03T14:36:38.160Z,45.12
2023-02-03T14:38:44.578Z,45.19
2023-02-03T14:40:56.906Z,44.73
2023-02-03T14:43:34.864Z,44.94
2023-02-03T14:46:02.513Z,45.10
2023-02-03T14:48:23.791Z,44.95
2023-02-03T14:50:46.264Z,45.22
2023-02-03T14:53:12.775Z,44.83
2023-02-03T14:55:31.296Z,45.08
2023-02-03T14:57:43.916Z,44.75
2023-02-03T14:59:57.532Z,44.89
2023-02-03T15:02:14.839Z,45.12
2023-02-03T15:04:27.375Z,44.91
2023-02-03T15:06:42.752Z,44.99
2023-02-03T15:08:49.002Z,44.91
2023-02-03T15:10:53.767Z,44.65
2023-02-03T15:13:00.860Z,44.56
2023-02-03T15:15:24.266Z,44.72
2023-02-03T15:17:31.425Z,44.80
2023-02-03T15:19:38.257Z,44.80
2023-02-03T15:21:44.932Z,44.50
2023-02-03T15:23:52.158Z,44.39
2023-02-03T15:25:58.063Z,44.69
2023-02-03T15:28:17.148Z,44.63
2023-02-03T15:30:28.503Z,44.59
2023-02-03T15:32:37.952Z,44.66
2023-02-03T15:34:46.600Z,44.39
2023-02-03T15:36:54.646Z,44.73
2023-02-03T15:39:05.013Z,44.38
2023-02-03T15:41:13.921Z,44.33
2023-02-03T15:43:22.206Z,44.55
2023-02-03T15:45:32.924Z,44.38
2023-02-03T15:47:44.472Z,44.41
2023-02-03T15:49:53.201Z,44.45
2023-02-03T15:52:02.442Z,44.50
2023-02-03T15:54:14.610Z,44.47
2023-02-03T15:56:27.552Z,44.48
2023-02-03T15:58:36.219Z,44.67
2023-02-03T16:00:44.075Z,44.52
2023-02-03T16:02:49.687Z,44.69
2023-02-03T16:04:55.005Z,44.61
2023-02-03T16:07:00.748Z,44.87
2023-02-03T16:09:07.104Z,44.77
2023-02-03T16:11:26.434Z,44.83
2023-02-03T16:13:33.485Z,44.86
2023-02-03T16:15:39.149Z,44.75
2023-02-03T16:17:46.505Z,44.93
2023-02-03T16:19:51.405Z,44.96
2023-02-03T16:21:59.815Z,44.74
2023-02-03T16:24:05.411Z,45.05
2023-02-03T16:26:21.138Z,45.24
2023-02-03T16:28:38.313Z,44.87
2023-02-03T16:31:07.249Z,45.11
2023-02-03T16:33:33.611Z,45.20
2023-02-03T16:35:50.814Z,45.50
2023-02-03T16:38:08.011Z,45.50
2023-02-03T16:40:26.836Z,45.68
2023-02-03T16:42:53.173Z,45.84
2023-02-03T16:45:10.334Z,45.77
2023-02-03T16:47:39.186Z,45.88
2023-02-03T16:49:59.168Z,45.86
2023-02-03T16:52:06.731Z,45.84
2023-02-03T16:54:17.465Z,46.07
2023-02-03T16:56:22.168Z,45.90
2023-02-03T16:58:27.328Z,46.03
2023-02-03T17:00:32.275Z,45.97
2023-02-03T17:02:36.992Z,45.81
2023-02-03T17:04:41.719Z,45.90
2023-02-03T17:06:51.239Z,45.98
2023-02-03T17:08:57.837Z,46.27
2023-02-03T17:11:09.314Z,46.20
2023-02-03T17:13:14.996Z,46.18
2023-02-03T17:15:20.131Z,46.33
2023-02-03T17:17:24.841Z,46.45
2023-02-03T17:19:29.603Z,46.27
2023-02-03T17:21:34.697Z,46.36
2023-02-03T17:23:42.769Z,46.39
2023-02-03T17:25:48.496Z,46.43
2023-02-03T17:27:53.263Z,46.78
2023-02-03T17:29:58.117Z,46.74
2023-02-03T17:32:02.994Z,46.65
2023-02-03T17:34:07.751Z,46.99
2023-02-03T17:36:15.340Z,46.98
2023-02-03T17:38:20.182Z,47.00
2023-02-03T17:54:22.482Z,47.81
2023-02-03T17:56:29.829Z,47.97
2023-02-03T17:58:34.543Z,47.95
2023-02-03T18:00:39.196Z,47.91
2023-02-03T18:02:44.658Z,48.18
2023-02-03T18:04:49.446Z,48.19
2023-02-03T18:06:54.634Z,48.22
2023-02-03T18:09:01.858Z,48.09
2023-02-03T18:11:07.219Z,48.23
2023-02-03T18:13:14.480Z,48.04
2023-02-03T18:15:19.623Z,48.34
2023-02-03T18:17:24.343Z,48.43
2023-02-03T18:19:29.068Z,48.33
2023-02-03T18:21:37.608Z,48.45
2023-02-03T18:23:42.767Z,48.38
2023-02-03T18:25:47.436Z,48.31
2023-02-03T18:27:53.791Z,48.49
2023-02-03T18:30:01.744Z,48.48
2023-02-03T18:32:06.799Z,48.62
2023-02-03T18:34:11.814Z,48.20
2023-02-03T18:36:18.380Z,48.37
2023-02-03T18:38:23.598Z,48.38
2023-02-03T18:40:28.820Z,48.47
2023-02-03T18:42:33.810Z,48.55
2023-02-03T18:44:39.668Z,48.24
2023-02-03T18:46:46.960Z,48.58
2023-02-03T18:48:51.710Z,48.36
2023-02-03T18:50:56.618Z,48.50
2023-02-03T18:53:01.556Z,48.54
2023-02-03T18:55:06.314Z,48.42
2023-02-03T18:57:13.338Z,48.46
2023-02-03T18:59:18.035Z,48.44
2023-02-03T19:01:25.648Z,48.44
2023-02-03T19:03:32.989Z,48.60
2023-02-03T19:05:37.943Z,48.41
2023-02-03T19:07:42.664Z,48.68
2023-02-03T19:09:47.401Z,48.28
2023-02-03T19:11:52.105Z,48.50
2023-02-03T19:13:56.950Z,48.49
2023-02-03T19:16:02.462Z,48.46
2023-02-03T19:18:07.318Z,48.68
2023-02-03T19:20:16.130Z,48.51
2023-02-03T19:22:20.889Z,48.49
2023-02-03T19:24:26.877Z,48.76
2023-02-03T19:26:31.736Z,48.45
2023-02-03T19:28:36.458Z,48.63
2023-02-03T19:30:41.299Z,48.66
2023-02-03T19:32:46.168Z,48.49
2023-02-03T19:34:50.868Z,48.82
2023-02-03T19:36:59.215Z,48.48
2023-02-03T19:39:03.909Z,48.45
2023-02-03T19:41:09.647Z,48.45
2023-02-03T19:43:14.434Z,48.43
2023-02-03T19:45:19.534Z,48.77
2023-02-03T19:47:24.298Z,48.43
2023-02-03T19:49:29.005Z,48.46
2023-02-03T19:51:33.695Z,48.76
2023-02-03T19:53:40.955Z,48.44
2023-02-03T19:55:46.139Z,48.66
2023-02-03T19:57:50.846Z,48.79
2023-02-03T19:59:56.730Z,48.86
2023-02-03T20:02:12.682Z,48.49
2023-02-03T20:04:18.725Z,48.86
2023-02-03T20:06:23.806Z,48.90
2023-02-03T20:08:28.678Z,48.66
2023-02-03T20:10:36.170Z,48.66
2023-02-03T20:12:40.905Z,48.70
2023-02-03T20:14:45.597Z,48.76
2023-02-03T20:16:51.213Z,48.75
2023-02-03T20:18:56.306Z,49.02
2023-02-03T20:21:01.647Z,48.92
2023-02-03T20:23:06.408Z,48.91
2023-02-03T20:25:12.186Z,48.98
2023-02-03T20:27:20.466Z,48.68
2023-02-03T20:29:25.206Z,48.68
2023-02-03T20:31:29.932Z,48.72
2023-02-03T20:33:35.532Z,48.85
2023-02-03T20:35:41.073Z,48.85
2023-02-03T20:37:45.834Z,48.78
2023-02-03T20:39:50.604Z,48.87
2023-02-03T20:41:55.678Z,49.04
2023-02-03T20:44:02.974Z,49.01
2023-02-03T20:46:13.692Z,49.08
2023-02-03T20:48:20.269Z,49.29
2023-02-03T20:50:40.656Z,49.01
2023-02-03T20:52:46.447Z,48.89
2023-02-03T20:54:51.217Z,48.89
2023-02-03T20:56:56.306Z,49.26
2023-02-03T20:59:03.914Z,49.07
2023-02-03T21:01:16.283Z,49.42
2023-02-03T21:03:35.002Z,49.30
2023-02-03T21:05:41.999Z,49.03
2023-02-03T21:07:46.689Z,49.44
2023-02-03T21:09:51.360Z,49.37
2023-02-03T21:11:56.976Z,49.58
2023-02-03T21:14:06.456Z,49.35
2023-02-03T21:16:20.258Z,49.61
2023-02-03T21:18:35.509Z,49.55
2023-02-03T21:20:40.582Z,49.45
2023-02-03T21:22:45.228Z,49.40
2023-02-03T21:24:53.794Z,49.45
2023-02-03T21:26:59.247Z,49.72
2023-02-03T21:29:06.592Z,49.76
2023-02-03T21:31:21.624Z,49.58
2023-02-03T21:33:35.464Z,49.54
2023-02-03T21:35:40.825Z,49.77
2023-02-03T21:37:45.569Z,49.72
2023-02-03T21:39:51.154Z,49.63
2023-02-03T21:41:55.960Z,49.47
2023-02-03T21:44:01.926Z,49.80
2023-02-03T21:46:13.181Z,49.72
2023-02-03T21:48:32.711Z,49.74
2023-02-03T21:50:40.969Z,49.79
2023-02-03T21:52:45.795Z,49.79
2023-02-03T21:54:50.508Z,50.10
2023-02-03T21:56:55.579Z,50.07
2023-02-03T21:59:00.518Z,49.82
2023-02-03T22:01:09.083Z,50.14
2023-02-03T22:03:21.901Z,50.18
2023-02-03T22:05:27.144Z,50.10
2023-02-03T22:07:32.000Z,50.05
2023-02-03T22:09:36.709Z,50.23
2023-02-03T22:11:41.449Z,50.36
2023-02-03T22:13:46.145Z,50.51
2023-02-03T22:15:51.074Z,50.23
2023-02-03T22:17:58.469Z,50.65
2023-02-03T22:20:03.214Z,50.42
2023-02-03T22:22:07.884Z,50.44
2023-02-03T22:24:12.662Z,50.56
2023-02-03T22:26:18.301Z,50.35
2023-02-03T22:28:23.094Z,50.24
2023-02-03T22:30:27.871Z,50.26
2023-02-03T22:32:32.733Z,50.41
2023-02-03T22:34:40.001Z,50.74
2023-02-03T22:36:44.672Z,50.68
2023-02-03T22:38:49.330Z,50.54
2023-02-03T22:40:55.517Z,50.53
2023-02-03T22:43:00.355Z,50.46
2023-02-03T22:45:05.083Z,50.52
2023-02-03T22:47:09.784Z,50.24
2023-02-03T22:49:14.578Z,50.58
2023-02-03T22:51:21.804Z,50.65
2023-02-03T22:53:26.747Z,50.40
2023-02-03T22:55:31.517Z,50.21
2023-02-03T22:57:38.175Z,50.48
2023-02-03T22:59:42.844Z,50.30
2023-02-03T23:01:47.558Z,50.44
2023-02-03T23:03:52.207Z,50.39
2023-02-03T23:05:56.992Z,50.55
2023-02-03T23:08:04.422Z,50.40
2023-02-03T23:10:11.243Z,50.44
2023-02-03T23:12:15.942Z,50.25
2023-02-03T23:14:20.683Z,50.21
2023-02-03T23:16:25.346Z,50.39
2023-02-03T23:18:30.044Z,50.44
2023-02-03T23:20:36.070Z,50.70
2023-02-03T23:22:40.900Z,50.22
2023-02-03T23:24:48.257Z,50.24
2023-02-03T23:26:52.993Z,50.37
2023-02-03T23:28:57.693Z,50.54
2023-02-03T23:31:03.914Z,50.67
2023-02-03T23:33:08.833Z,50.48
2023-02-03T23:35:26.198Z,50.55
2023-02-03T23:37:31.090Z,50.57
2023-02-03T23:39:35.812Z,50.34
2023-02-03T23:41:43.073Z,50.40
2023-02-03T23:43:47.820Z,50.63
2023-02-03T23:45:52.554Z,50.51
2023-02-03T23:47:57.426Z,50.45
2023-02-03T23:50:02.109Z,50.41
2023-02-03T23:52:07.470Z,50.35
2023-02-03T23:54:12.135Z,50.30
2023-02-03T23:56:16.868Z,50.10
2023-02-03T23:58:24.277Z,50.19
